createdAt,value
2019-04-25T00:01:47.571Z,97754.32
2019-04-25T00:04:37.013Z,97759.48
2019-04-25T00:07:06.758Z,97754.45
2019-04-25T00:09:37.932Z,97764.42
2019-04-25T00:12:07.952Z,97759.00
2019-04-25T00:14:56.766Z,97764.78
2019-04-25T00:17:27.161Z,97765.45
2019-04-25T00:19:56.799Z,97767.19
2019-04-25T00:22:29.464Z,97763.72
2019-04-25T00:25:12.921Z,97761.80
2019-04-25T00:27:32.863Z,97757.38
2019-04-25T00:30:03.177Z,97765.03
2019-04-25T00:32:33.023Z,97763.98
2019-04-25T00:35:02.555Z,97767.87
2019-04-25T00:37:32.361Z,97764.02
2019-04-25T00:40:21.955Z,97766.98
2019-04-25T00:42:52.611Z,97764.22
2019-04-25T00:45:22.733Z,97768.06
2019-04-25T00:47:52.939Z,97770.91
2019-04-25T00:50:22.823Z,97772.52
2019-04-25T00:52:55.080Z,97776.91
2019-04-25T00:55:28.922Z,97777.02
2019-04-25T00:57:58.942Z,97771.08
2019-04-25T01:00:30.044Z,97780.80
2019-04-25T01:03:01.862Z,97778.42
2019-04-25T01:05:32.429Z,97781.05
2019-04-25T01:08:02.189Z,97775.78
2019-04-25T01:10:32.040Z,97773.75
2019-04-25T01:13:03.117Z,97777.25
2019-04-25T01:15:52.896Z,97775.93
2019-04-25T01:18:23.304Z,97779.64
2019-04-25T01:20:54.434Z,97776.70
2019-04-25T01:23:24.174Z,97777.56
2019-04-25T01:25:54.653Z,97772.17
2019-04-25T01:28:24.485Z,97771.59
2019-04-25T01:30:55.132Z,97771.41
2019-04-25T01:33:25.678Z,97776.48
2019-04-25T01:35:57.022Z,97785.48
2019-04-25T01:38:28.227Z,97784.31
2019-04-25T01:40:59.511Z,97785.08
2019-04-25T01:43:30.605Z,97786.80
2019-04-25T01:46:01.021Z,97784.86
2019-04-25T01:48:30.513Z,97792.11
2019-04-25T01:50:59.977Z,97798.63
2019-04-25T01:53:49.122Z,97811.26
2019-04-25T01:56:18.900Z,97812.58
2019-04-25T01:59:07.863Z,97736.24
2019-04-25T02:01:56.849Z,97740.79
2019-04-25T02:04:26.344Z,97814.16
2019-04-25T02:06:55.993Z,97817.89
2019-04-25T02:09:25.520Z,97821.97
2019-04-25T02:11:59.334Z,97827.70
2019-04-25T02:14:28.992Z,97831.60
2019-04-25T02:16:58.785Z,97831.06
2019-04-25T02:19:28.275Z,97831.42
2019-04-25T02:22:17.127Z,97827.00
2019-04-25T02:24:47.562Z,97821.38
2019-04-25T02:27:17.087Z,97832.55
2019-04-25T02:29:46.585Z,97828.03
2019-04-25T02:32:16.182Z,97824.52
2019-04-25T02:34:45.835Z,97828.09
2019-04-25T02:37:15.365Z,97839.95
2019-04-25T02:39:45.096Z,97846.86
2019-04-25T02:42:16.959Z,97842.72
2019-04-25T02:44:47.569Z,97840.20
2019-04-25T02:47:18.912Z,97847.60
2019-04-25T02:49:50.054Z,97851.34
2019-04-25T02:52:21.124Z,97842.47
2019-04-25T02:54:50.635Z,97843.67
2019-04-25T02:57:28.847Z,97857.18
2019-04-25T02:59:58.570Z,97847.58
2019-04-25T03:02:28.344Z,97856.91
2019-04-25T03:04:59.427Z,97858.52
2019-04-25T03:07:29.312Z,97853.63
2019-04-25T03:09:59.539Z,97862.84
2019-04-25T03:12:33.474Z,97852.48
2019-04-25T03:15:02.069Z,97853.54
2019-04-25T03:17:34.282Z,97852.14
2019-04-25T03:20:24.593Z,97853.86
2019-04-25T03:22:55.986Z,97856.27
2019-04-25T03:25:25.461Z,97855.25
2019-04-25T03:28:15.659Z,97854.75
2019-04-25T03:30:45.284Z,97851.37
2019-04-25T03:33:19.301Z,97847.89
2019-04-25T03:35:46.242Z,97849.89
2019-04-25T03:38:15.787Z,97851.59
2019-04-25T03:40:45.237Z,97854.61
2019-04-25T03:43:15.058Z,97850.66
2019-04-25T03:45:45.306Z,97854.95
2019-04-25T03:48:15.158Z,97851.14
2019-04-25T03:50:44.646Z,97857.58
2019-04-25T03:53:14.254Z,97857.30
2019-04-25T03:56:05.126Z,97861.94
2019-04-25T03:58:34.277Z,97862.50
2019-04-25T04:01:06.949Z,97864.98
2019-04-25T04:03:37.686Z,97873.11
2019-04-25T04:06:09.825Z,97875.92
2019-04-25T04:08:39.473Z,97883.72
2019-04-25T04:11:10.145Z,97891.03
2019-04-25T04:13:39.630Z,97905.31
2019-04-25T04:16:10.710Z,97906.16
2019-04-25T04:18:41.960Z,97911.86
2019-04-25T04:21:15.799Z,97915.36
2019-04-25T04:23:46.019Z,97912.19
2019-04-25T04:26:15.730Z,97913.50
2019-04-25T04:28:45.337Z,97914.10
2019-04-25T04:31:15.458Z,97924.46
2019-04-25T04:34:04.614Z,97929.99
2019-04-25T04:36:34.079Z,97936.59
2019-04-25T04:39:05.471Z,97931.33
2019-04-25T04:41:55.502Z,97925.55
2019-04-25T04:44:25.064Z,97879.13
2019-04-25T04:47:15.296Z,97881.48
2019-04-25T04:50:05.398Z,97871.09
2019-04-25T04:52:34.963Z,97850.16
2019-04-25T04:55:08.566Z,97834.05
2019-04-25T04:57:37.205Z,97830.03
2019-04-25T05:00:27.733Z,97838.13
2019-04-25T05:02:58.793Z,97840.64
2019-04-25T05:05:30.633Z,97842.81
2019-04-25T05:08:03.808Z,97849.00
2019-04-25T05:10:33.457Z,97850.92
2019-04-25T05:13:22.256Z,97860.84
2019-04-25T05:15:53.149Z,97877.43
2019-04-25T05:18:34.583Z,97886.27
2019-04-25T05:20:54.330Z,97885.70
2019-04-25T05:23:24.907Z,97885.27
2019-04-25T05:26:04.398Z,97886.33
2019-04-25T05:28:54.806Z,97891.84
2019-04-25T05:31:25.999Z,97895.73
2019-04-25T05:33:55.482Z,97889.41
2019-04-25T05:36:26.818Z,97900.05
2019-04-25T05:38:56.562Z,97902.38
2019-04-25T05:41:27.645Z,97911.84
2019-04-25T05:43:57.103Z,97914.27
2019-04-25T05:46:26.606Z,97916.67
2019-04-25T05:48:56.076Z,97925.12
2019-04-25T05:51:25.960Z,97919.80
2019-04-25T05:53:55.594Z,97928.17
2019-04-25T05:56:26.925Z,97922.98
2019-04-25T05:59:15.891Z,97921.61
2019-04-25T06:01:45.372Z,97924.58
2019-04-25T06:04:14.857Z,97922.23
2019-04-25T06:06:44.653Z,97929.16
2019-04-25T06:09:15.801Z,97927.13
2019-04-25T06:11:46.899Z,97929.88
2019-04-25T06:14:18.383Z,97940.91
2019-04-25T06:16:47.968Z,97942.48
2019-04-25T06:19:20.822Z,97952.16
2019-04-25T06:21:50.912Z,97948.29
2019-04-25T06:24:24.341Z,97949.80
2019-04-25T06:26:54.902Z,97947.53
2019-04-25T06:29:57.359Z,97948.14
2019-04-25T06:32:16.785Z,97935.59
2019-04-25T06:34:46.378Z,97939.05
2019-04-25T06:37:16.072Z,97938.53
2019-04-25T06:39:45.542Z,97944.05
2019-04-25T06:42:15.010Z,97950.30
2019-04-25T06:44:46.267Z,97943.43
2019-04-25T06:47:36.651Z,97875.33
2019-04-25T06:50:08.046Z,97947.55
2019-04-25T06:52:37.541Z,97919.79
2019-04-25T06:55:27.242Z,97918.27
2019-04-25T06:58:08.900Z,97923.02
2019-04-25T07:00:29.829Z,97908.62
2019-04-25T07:03:00.087Z,97916.91
2019-04-25T07:05:35.859Z,97898.70
2019-04-25T07:08:03.187Z,97909.89
2019-04-25T07:10:33.922Z,97913.92
2019-04-25T07:13:04.456Z,97924.81
2019-04-25T07:15:35.195Z,97937.34
2019-04-25T07:18:05.274Z,97935.95
2019-04-25T07:20:40.819Z,97945.27
2019-04-25T07:23:10.482Z,97961.81
2019-04-25T07:25:41.862Z,97950.20
2019-04-25T07:28:23.547Z,97936.42
2019-04-25T07:30:51.695Z,97941.30
2019-04-25T07:33:19.250Z,97932.16
2019-04-25T07:35:48.743Z,97944.76
2019-04-25T07:38:18.322Z,97940.88
2019-04-25T07:41:07.101Z,97934.55
2019-04-25T07:43:37.262Z,97928.40
2019-04-25T07:46:10.922Z,97919.72
2019-04-25T07:48:40.476Z,97910.05
2019-04-25T07:51:10.074Z,97901.41
2019-04-25T07:53:45.340Z,97855.77
2019-04-25T07:56:15.215Z,97915.43
2019-04-25T07:58:50.474Z,97913.74
2019-04-25T08:01:16.332Z,97908.66
2019-04-25T08:03:45.874Z,97890.47
2019-04-25T08:06:15.466Z,97892.13
2019-04-25T08:08:46.548Z,97879.45
2019-04-25T08:11:36.226Z,97863.11
2019-04-25T08:14:08.268Z,97868.72
2019-04-25T08:16:39.496Z,97894.48
2019-04-25T08:19:09.182Z,97887.73
2019-04-25T08:21:39.580Z,97875.63
2019-04-25T08:24:10.922Z,97877.16
2019-04-25T08:26:41.766Z,97883.06
2019-04-25T08:29:12.919Z,97886.29
2019-04-25T08:31:43.920Z,97895.38
2019-04-25T08:34:14.649Z,97889.47
2019-04-25T08:36:45.674Z,97886.94
2019-04-25T08:39:15.689Z,97877.87
2019-04-25T08:41:45.801Z,97869.06
2019-04-25T08:44:15.620Z,97869.38
2019-04-25T08:47:04.607Z,97862.61
2019-04-25T08:49:36.264Z,97851.19
2019-04-25T08:52:06.256Z,97839.91
2019-04-25T08:54:41.123Z,97830.48
2019-04-25T08:57:10.219Z,97835.30
2019-04-25T09:00:00.630Z,97835.97
2019-04-25T09:02:34.469Z,97837.22
2019-04-25T09:05:04.628Z,97837.78
2019-04-25T09:07:35.438Z,97838.53
2019-04-25T09:10:07.705Z,97827.59
2019-04-25T09:12:37.798Z,97825.84
2019-04-25T09:15:08.558Z,97812.68
2019-04-25T09:17:38.089Z,97804.70
2019-04-25T09:20:26.926Z,97814.73
2019-04-25T09:22:56.412Z,97822.13
2019-04-25T09:25:25.940Z,97819.88
2019-04-25T09:27:55.470Z,97809.62
2019-04-25T09:30:26.510Z,97808.03
2019-04-25T09:33:15.346Z,97796.89
2019-04-25T09:35:45.962Z,97773.86
2019-04-25T09:38:15.986Z,97753.20
2019-04-25T09:40:46.617Z,97756.98
2019-04-25T09:43:18.575Z,97743.67
2019-04-25T09:46:08.693Z,97730.14
2019-04-25T09:48:40.265Z,97725.25
2019-04-25T09:51:13.444Z,97720.67
2019-04-25T09:53:50.030Z,97709.44
2019-04-25T09:56:17.504Z,97720.11
2019-04-25T09:58:49.469Z,97716.38
2019-04-25T10:01:20.006Z,97716.39
2019-04-25T10:04:08.983Z,97716.39
2019-04-25T10:06:38.886Z,97693.30
2019-04-25T10:09:10.846Z,97710.78
2019-04-25T10:11:40.640Z,97708.91
2019-04-25T10:14:14.926Z,97706.31
2019-04-25T10:16:45.984Z,97709.02
2019-04-25T10:19:34.803Z,97694.05
2019-04-25T10:22:04.656Z,97699.86
2019-04-25T10:25:00.245Z,97698.81
2019-04-25T10:27:24.928Z,97685.28
2019-04-25T10:29:57.169Z,97676.14
2019-04-25T10:32:26.120Z,97679.84
2019-04-25T10:34:55.592Z,97666.78
2019-04-25T10:37:25.868Z,97655.60
2019-04-25T10:39:55.737Z,97671.42
2019-04-25T10:42:25.793Z,97658.03
2019-04-25T10:44:56.652Z,97657.05
2019-04-25T10:47:26.520Z,97664.40
2019-04-25T10:49:56.001Z,97646.06
2019-04-25T10:52:25.831Z,97643.11
2019-04-25T10:54:56.725Z,97664.88
2019-04-25T10:57:46.516Z,97667.89
2019-04-25T11:00:24.038Z,97670.77
2019-04-25T11:03:14.577Z,97669.09
2019-04-25T11:06:04.009Z,97677.31
2019-04-25T11:08:34.350Z,97652.74
2019-04-25T11:11:04.400Z,97656.85
2019-04-25T11:13:35.472Z,97654.66
2019-04-25T11:16:08.204Z,97647.69
2019-04-25T11:18:37.887Z,97644.59
2019-04-25T11:21:07.546Z,97660.45
2019-04-25T11:23:37.042Z,97680.00
2019-04-25T11:26:06.926Z,97676.63
2019-04-25T11:28:37.464Z,97693.85
2019-04-25T11:31:08.915Z,97678.00
2019-04-25T11:33:57.855Z,97654.41
2019-04-25T11:36:27.756Z,97638.58
2019-04-25T11:38:59.274Z,97645.44
2019-04-25T11:41:29.158Z,97610.71
2019-04-25T11:44:01.387Z,97620.66
2019-04-25T11:46:40.178Z,97610.73
2019-04-25T11:49:09.943Z,97604.49
2019-04-25T11:51:39.668Z,97606.77
2019-04-25T11:54:09.144Z,97610.28
2019-04-25T11:56:38.629Z,97596.92
2019-04-25T11:59:08.190Z,97601.27
2019-04-25T12:01:47.538Z,97591.49
2019-04-25T12:04:16.873Z,97584.91
2019-04-25T12:06:47.576Z,97577.05
2019-04-25T12:09:18.253Z,97584.00
2019-04-25T12:11:50.391Z,97589.28
2019-04-25T12:14:39.191Z,97584.23
2019-04-25T12:17:08.668Z,97578.73
2019-04-25T12:19:38.368Z,97575.56
2019-04-25T12:22:27.410Z,97565.88
2019-04-25T12:24:56.874Z,97550.63
2019-04-25T12:27:48.583Z,97532.41
2019-04-25T12:30:17.509Z,97532.27
2019-04-25T12:33:18.271Z,97535.86
2019-04-25T12:35:56.873Z,97524.62
2019-04-25T12:38:26.384Z,97522.03
2019-04-25T12:40:56.128Z,97522.28
2019-04-25T12:43:27.234Z,97533.94
2019-04-25T12:45:58.454Z,97531.98
2019-04-25T12:48:28.116Z,97507.44
2019-04-25T12:50:57.931Z,97503.34
2019-04-25T12:53:27.680Z,97492.00
2019-04-25T12:56:16.525Z,97484.84
2019-04-25T12:58:46.050Z,97491.42
2019-04-25T13:01:16.177Z,97489.53
2019-04-25T13:03:45.675Z,97483.39
2019-04-25T13:06:15.803Z,97476.75
2019-04-25T13:08:45.444Z,97474.95
2019-04-25T13:11:15.187Z,97466.53
2019-04-25T13:13:46.194Z,97458.06
2019-04-25T13:16:35.011Z,97456.91
2019-04-25T13:19:16.376Z,97458.53
2019-04-25T13:21:38.567Z,97449.68
2019-04-25T13:24:08.061Z,97452.20
2019-04-25T13:26:43.508Z,97446.66
2019-04-25T13:29:14.722Z,97438.06
2019-04-25T13:31:45.963Z,97437.13
2019-04-25T13:34:17.101Z,97431.84
2019-04-25T13:36:46.590Z,97425.58
2019-04-25T13:39:35.405Z,97433.48
2019-04-25T13:42:06.749Z,97437.00
2019-04-25T13:44:36.307Z,97426.88
2019-04-25T13:47:06.755Z,97427.84
2019-04-25T13:49:36.565Z,97435.09
2019-04-25T13:52:09.370Z,97439.52
2019-04-25T13:54:39.040Z,97441.41
2019-04-25T13:57:08.571Z,97445.73
2019-04-25T13:59:41.014Z,97438.50
2019-04-25T14:02:11.242Z,97436.27
2019-04-25T14:04:46.357Z,97439.25
2019-04-25T14:07:15.987Z,97440.38
2019-04-25T14:10:06.275Z,97437.03
2019-04-25T14:12:55.184Z,97433.70
2019-04-25T14:15:25.638Z,97427.64
2019-04-25T14:17:56.909Z,97430.02
2019-04-25T14:20:28.094Z,97432.11
2019-04-25T14:23:17.591Z,97433.42
2019-04-25T14:25:47.227Z,97429.26
2019-04-25T14:28:16.894Z,97435.03
2019-04-25T14:30:46.435Z,97437.05
2019-04-25T14:33:15.994Z,97429.31
2019-04-25T14:35:45.484Z,97378.81
2019-04-25T14:38:17.714Z,97429.61
2019-04-25T14:40:48.760Z,97425.35
2019-04-25T14:43:18.258Z,97421.16
2019-04-25T14:45:47.764Z,97424.63
2019-04-25T14:48:17.263Z,97430.78
2019-04-25T14:50:46.921Z,97434.80
2019-04-25T14:53:16.448Z,97441.53
2019-04-25T14:55:47.567Z,97450.45
2019-04-25T14:58:18.896Z,97445.59
2019-04-25T15:00:50.114Z,97465.75
2019-04-25T15:03:19.569Z,97469.10
2019-04-25T15:05:49.068Z,97485.73
2019-04-25T15:08:18.612Z,97482.59
2019-04-25T15:10:48.569Z,97480.39
2019-04-25T15:13:18.322Z,97484.63
2019-04-25T15:15:48.013Z,97490.41
2019-04-25T15:18:17.538Z,97493.76
2019-04-25T15:20:47.038Z,97488.72
2019-04-25T15:23:16.546Z,97486.88
2019-04-25T15:25:46.047Z,97493.87
2019-04-25T15:28:15.598Z,97489.43
2019-04-25T15:30:45.946Z,97494.48
2019-04-25T15:33:15.547Z,97487.03
2019-04-25T15:35:46.625Z,97531.03
2019-04-25T15:38:17.857Z,97547.33
2019-04-25T15:40:50.921Z,97575.08
2019-04-25T15:43:41.371Z,97575.86
2019-04-25T15:46:12.619Z,97602.64
2019-04-25T15:48:42.194Z,97600.17
2019-04-25T15:51:18.483Z,97616.39
2019-04-25T15:53:47.940Z,97602.67
2019-04-25T15:56:17.478Z,97605.55
2019-04-25T15:58:47.062Z,97588.14
2019-04-25T16:01:16.925Z,97582.58
2019-04-25T16:03:46.413Z,97579.83
2019-04-25T16:06:15.949Z,97598.39
2019-04-25T16:08:45.606Z,97595.18
2019-04-25T16:11:15.372Z,97608.13
2019-04-25T16:13:44.890Z,97612.38
2019-04-25T16:16:14.386Z,97610.59
2019-04-25T16:18:43.901Z,97613.59
2019-04-25T16:21:13.435Z,97622.55
2019-04-25T16:23:42.958Z,97620.50
2019-04-25T16:26:13.042Z,97623.02
2019-04-25T16:28:42.569Z,97631.23
2019-04-25T16:31:13.647Z,97633.60
2019-04-25T16:33:43.138Z,97647.57
2019-04-25T16:36:12.928Z,97645.88
2019-04-25T16:38:42.426Z,97655.38
2019-04-25T16:41:12.240Z,97680.52
2019-04-25T16:43:43.388Z,97663.34
2019-04-25T16:46:13.823Z,97655.26
2019-04-25T16:48:43.366Z,97663.77
2019-04-25T16:51:13.282Z,97654.29
2019-04-25T16:53:42.746Z,97657.15
2019-04-25T16:56:12.548Z,97676.77
2019-04-25T16:59:01.442Z,97682.95
2019-04-25T17:01:31.668Z,97687.43
2019-04-25T17:04:01.426Z,97685.19
2019-04-25T17:06:31.435Z,97695.17
2019-04-25T17:09:00.884Z,97715.67
2019-04-25T17:11:30.990Z,97707.75
2019-04-25T17:14:03.109Z,97710.64
2019-04-25T17:16:34.776Z,97713.30
2019-04-25T17:19:06.068Z,97731.73
2019-04-25T17:21:55.067Z,97734.71
2019-04-25T17:24:24.529Z,97739.16
2019-04-25T17:26:53.851Z,97746.26
2019-04-25T17:29:23.423Z,97751.81
2019-04-25T17:31:54.502Z,97746.66
2019-04-25T17:34:25.758Z,97762.75
2019-04-25T17:36:56.854Z,97771.51
2019-04-25T17:39:28.027Z,97756.14
2019-04-25T17:41:57.523Z,97754.66
2019-04-25T17:44:46.382Z,97758.91
2019-04-25T17:47:15.951Z,97755.79
2019-04-25T17:49:45.706Z,97764.81
2019-04-25T17:52:15.196Z,97769.80
2019-04-25T17:54:46.178Z,97778.10
2019-04-25T17:57:15.751Z,97773.23
2019-04-25T18:00:08.694Z,97775.12
2019-04-25T18:02:39.139Z,97789.36
2019-04-25T18:05:09.026Z,97790.72
2019-04-25T18:07:39.024Z,97815.70
2019-04-25T18:10:10.419Z,97808.70
2019-04-25T18:12:40.102Z,97825.29
2019-04-25T18:15:30.599Z,97836.05
2019-04-25T18:18:01.968Z,97833.52
2019-04-25T18:33:10.618Z,97866.20
2019-04-25T18:35:41.682Z,97877.57
2019-04-25T18:38:31.896Z,97884.11
2019-04-25T18:41:03.332Z,97890.21
2019-04-25T18:43:34.410Z,97892.63
2019-04-25T18:46:05.527Z,97896.08
2019-04-25T18:48:35.003Z,97903.58
2019-04-25T18:51:07.321Z,97914.13
2019-04-25T18:53:39.200Z,97923.34
2019-04-25T18:56:11.301Z,97922.65
2019-04-25T18:58:42.427Z,97922.66
2019-04-25T19:01:13.504Z,97934.16
2019-04-25T19:03:45.792Z,97932.05
2019-04-25T19:06:17.071Z,97928.87
2019-04-25T19:08:47.129Z,97941.48
2019-04-25T19:11:16.651Z,97932.05
2019-04-25T19:13:47.372Z,97932.08
2019-04-25T19:16:36.258Z,97949.09
2019-04-25T19:19:05.891Z,97948.67
2019-04-25T19:21:35.379Z,97945.39
2019-04-25T19:24:06.041Z,97948.31
2019-04-25T19:26:35.580Z,97952.88
2019-04-25T19:29:05.148Z,97949.64
2019-04-25T19:31:34.705Z,97954.55
2019-04-25T19:34:04.801Z,97948.34
2019-04-25T19:36:34.278Z,97942.91
2019-04-25T19:39:05.803Z,97956.66
2019-04-25T19:41:36.904Z,97962.56
2019-04-25T19:44:08.188Z,97966.36
2019-04-25T19:46:57.030Z,97960.28
2019-04-25T19:49:26.538Z,97972.56
2019-04-25T19:51:55.988Z,97957.05
2019-04-25T19:54:25.523Z,97962.08
2019-04-25T19:56:56.466Z,97969.11
2019-04-25T19:59:26.097Z,97975.50
2019-04-25T20:02:16.608Z,97971.91
2019-04-25T20:04:48.652Z,97969.95
2019-04-25T20:07:20.017Z,97971.42
2019-04-25T20:09:51.213Z,97976.16
2019-04-25T20:12:22.296Z,97977.15
2019-04-25T20:14:51.774Z,97980.59
2019-04-25T20:17:40.557Z,97984.81
2019-04-25T20:20:13.355Z,97980.23
2019-04-25T20:22:43.801Z,97986.31
2019-04-25T20:25:14.729Z,97986.30
2019-04-25T20:27:44.445Z,97970.27
2019-04-25T20:30:34.501Z,97987.14
2019-04-25T20:33:05.564Z,97990.39
2019-04-25T20:35:35.071Z,97990.33
2019-04-25T20:38:04.859Z,97984.17
2019-04-25T20:40:34.357Z,97992.67
2019-04-25T20:43:03.830Z,98008.92
2019-04-25T20:45:33.437Z,98028.39
2019-04-25T20:48:02.890Z,98034.94
2019-04-25T20:50:32.357Z,98038.05
2019-04-25T20:53:01.848Z,98037.95
2019-04-25T20:55:31.319Z,98028.91
2019-04-25T20:58:00.818Z,98022.19
2019-04-25T21:00:35.638Z,98025.77
2019-04-25T21:03:24.410Z,98032.13
2019-04-25T21:05:55.540Z,98029.84
2019-04-25T21:08:25.240Z,98019.70
2019-04-25T21:11:14.103Z,98012.70
2019-04-25T21:13:45.204Z,98006.96
2019-04-25T21:16:16.306Z,98010.47
2019-04-25T21:18:47.477Z,98001.01
2019-04-25T21:21:16.974Z,97994.87
2019-04-25T21:24:05.798Z,97992.22
2019-04-25T21:26:35.350Z,97989.94
2019-04-25T21:29:05.016Z,97971.63
2019-04-25T21:31:34.606Z,97974.04
2019-04-25T21:34:04.085Z,97974.55
2019-04-25T21:36:33.917Z,97971.84
2019-04-25T21:39:06.726Z,97977.55
2019-04-25T21:41:57.703Z,97976.70
2019-04-25T21:44:46.893Z,97982.16
2019-04-25T21:47:16.377Z,97982.38
2019-04-25T21:49:46.292Z,97979.70
2019-04-25T21:52:15.802Z,97968.89
2019-04-25T21:54:45.638Z,97968.23
2019-04-25T21:57:36.119Z,97960.73
2019-04-25T22:00:11.039Z,97940.32
2019-04-25T22:02:42.609Z,97931.56
2019-04-25T22:05:13.553Z,97938.56
2019-04-25T22:07:43.505Z,97941.48
2019-04-25T22:10:13.892Z,97946.50
2019-04-25T22:12:43.442Z,97937.69
2019-04-25T22:15:13.482Z,97950.94
2019-04-25T22:17:43.225Z,97957.56
2019-04-25T22:20:13.537Z,97952.31
2019-04-25T22:22:44.778Z,97961.46
2019-04-25T22:25:15.882Z,97977.14
2019-04-25T22:27:46.300Z,97977.45
2019-04-25T22:30:17.770Z,97977.14
2019-04-25T22:32:49.194Z,97980.36
2019-04-25T22:35:29.140Z,97993.08
2019-04-25T22:37:59.996Z,97996.20
2019-04-25T22:40:31.024Z,97985.89
2019-04-25T22:43:01.658Z,97973.92
2019-04-25T22:45:31.273Z,97957.06
2019-04-25T22:48:01.308Z,97945.16
2019-04-25T22:50:31.886Z,97943.52
2019-04-25T22:53:02.072Z,97947.67
2019-04-25T22:55:33.093Z,97962.16
2019-04-25T22:58:03.623Z,97981.16
2019-04-25T23:00:34.966Z,97991.63
2019-04-25T23:03:07.320Z,97991.15
2019-04-25T23:05:38.462Z,97991.66
2019-04-25T23:08:08.166Z,98009.84
2019-04-25T23:10:39.611Z,98029.48
2019-04-25T23:13:10.950Z,98034.53
2019-04-25T23:15:40.589Z,98051.95
2019-04-25T23:18:11.402Z,98050.70
2019-04-25T23:20:40.947Z,98038.53
2019-04-25T23:23:11.693Z,98022.32
2019-04-25T23:25:42.918Z,98005.41
2019-04-25T23:28:14.217Z,98008.17
2019-04-25T23:30:45.653Z,98008.73
2019-04-25T23:33:21.068Z,98010.57
2019-04-25T23:35:51.600Z,98003.82
2019-04-25T23:38:26.740Z,98016.19
2019-04-25T23:40:56.228Z,98015.55
2019-04-25T23:43:26.026Z,98009.09
2019-04-25T23:45:55.534Z,98007.69
2019-04-25T23:48:25.216Z,98006.05
2019-04-25T23:51:00.897Z,98021.44
2019-04-25T23:53:30.921Z,98036.34
2019-04-25T23:56:00.651Z,98037.48
2019-04-25T23:58:30.251Z,98037.32
